Time;durP1;ratioP1;P1;durP2;ratioP2;P2;SDS_P1;SDS_P2;PMS_P1;PMS_P2;Temp;Humidity;BMP_temperature;BMP_pressure;BME280_temperature;BME280_humidity;BME280_pressure;Samples;Min_cycle;Max_cycle;Signal;HPM_P1;HPM_P2
2021/01/20 00:00:00;;;;;;;77.43;39.03;;;;;;;;;;5015210;28;20208;-89
2021/01/20 00:02:27;;;;;;;80.67;38.73;;;;;;;;;;5015280;28;20667;-90
2021/01/20 00:04:52;;;;;;;76.47;37.70;;;;;;;;;;5016861;28;20177;-89
2021/01/20 00:07:18;;;;;;;70.63;36.47;;;;;;;;;;5015316;28;20181;-89
2021/01/20 00:09:43;;;;;;;67.83;34.00;;;;;;;;;;5016949;28;20204;-89
2021/01/20 00:12:09;;;;;;;68.20;35.50;;;;;;;;;;5016495;28;20189;-89
2021/01/20 00:14:36;;;;;;;69.17;35.20;;;;;;;;;;5016555;28;20181;-90
2021/01/20 00:17:01;;;;;;;71.40;36.07;;;;;;;;;;5017213;28;20239;-89
2021/01/20 00:19:27;;;;;;;71.07;35.57;;;;;;;;;;5015595;28;20958;-89
2021/01/20 00:21:52;;;;;;;69.93;34.50;;;;;;;;;;5016594;28;20208;-90
2021/01/20 00:24:17;;;;;;;72.03;35.97;;;;;;;;;;5015316;28;20201;-89
2021/01/20 00:26:43;;;;;;;73.43;35.80;;;;;;;;;;5015223;28;20177;-90
2021/01/20 00:29:08;;;;;;;79.53;37.93;;;;;;;;;;5015060;28;20217;-88
2021/01/20 00:31:33;;;;;;;74.47;37.13;;;;;;;;;;5015161;28;20226;-90
2021/01/20 00:33:59;;;;;;;75.47;36.70;;;;;;;;;;5015305;28;20620;-90
2021/01/20 00:36:25;;;;;;;68.20;35.40;;;;;;;;;;5015002;28;20184;-89
2021/01/20 00:38:51;;;;;;;65.53;35.80;;;;;;;;;;5016838;28;20260;-88
2021/01/20 00:41:17;;;;;;;64.80;33.20;;;;;;;;;;5016227;28;20624;-89
2021/01/20 00:43:42;;;;;;;69.03;33.37;;;;;;;;;;5016699;28;20181;-88
2021/01/20 00:46:07;;;;;;;74.20;37.00;;;;;;;;;;5014620;28;20300;-88
2021/01/20 00:48:33;;;;;;;70.43;34.50;;;;;;;;;;5014993;28;20209;-90
2021/01/20 00:50:58;;;;;;;67.20;35.37;;;;;;;;;;5014986;28;20188;-89
2021/01/20 00:53:24;;;;;;;74.13;38.47;;;;;;;;;;5016317;28;20166;-89
2021/01/20 00:55:50;;;;;;;71.43;35.07;;;;;;;;;;5016546;28;20165;-90
2021/01/20 00:58:15;;;;;;;68.17;35.37;;;;;;;;;;5014670;28;20232;-89
2021/01/20 01:00:41;;;;;;;94.50;43.50;;;;;;;;;;5014905;28;20589;-89
2021/01/20 01:03:06;;;;;;;90.37;40.10;;;;;;;;;;5014884;28;20232;-89
2021/01/20 01:05:32;;;;;;;88.40;40.97;;;;;;;;;;5015955;28;20306;-89
2021/01/20 01:07:58;;;;;;;80.93;38.73;;;;;;;;;;5015703;28;20643;-89
2021/01/20 01:10:23;;;;;;;75.57;35.70;;;;;;;;;;5015513;28;20177;-89
2021/01/20 01:12:49;;;;;;;65.27;33.70;;;;;;;;;;5016421;28;20173;-89
2021/01/20 01:15:14;;;;;;;63.67;33.43;;;;;;;;;;5015688;28;20181;-89
2021/01/20 01:17:41;;;;;;;63.47;34.80;;;;;;;;;;5015330;28;20181;-89
2021/01/20 01:20:06;;;;;;;65.77;33.43;;;;;;;;;;5014241;28;20634;-89
2021/01/20 01:22:32;;;;;;;64.33;32.60;;;;;;;;;;5014687;28;20181;-89
2021/01/20 01:24:58;;;;;;;63.37;31.73;;;;;;;;;;5015414;28;20558;-89
2021/01/20 01:27:23;;;;;;;62.60;32.40;;;;;;;;;;5015228;28;20181;-88
2021/01/20 01:29:48;;;;;;;61.07;32.03;;;;;;;;;;5014204;28;20296;-89
2021/01/20 01:32:14;;;;;;;58.17;32.00;;;;;;;;;;5013867;28;20193;-89
2021/01/20 01:34:40;;;;;;;60.40;32.23;;;;;;;;;;5015220;28;20165;-89
2021/01/20 01:37:06;;;;;;;59.23;30.67;;;;;;;;;;5015299;28;20256;-89
2021/01/20 01:39:33;;;;;;;57.13;31.13;;;;;;;;;;5014739;28;20605;-89
2021/01/20 01:41:59;;;;;;;57.97;30.53;;;;;;;;;;5014224;28;20173;-89
2021/01/20 01:44:24;;;;;;;56.87;30.57;;;;;;;;;;5014673;28;20677;-90
2021/01/20 01:46:49;;;;;;;55.40;30.40;;;;;;;;;;5014932;28;20707;-88
2021/01/20 01:49:15;;;;;;;53.93;30.33;;;;;;;;;;5015554;28;20247;-88
2021/01/20 01:51:40;;;;;;;53.27;29.40;;;;;;;;;;5015722;28;20199;-88
2021/01/20 01:54:06;;;;;;;48.60;28.23;;;;;;;;;;5015744;28;20170;-88
2021/01/20 01:56:31;;;;;;;48.83;26.93;;;;;;;;;;5016032;28;20173;-88
2021/01/20 01:58:57;;;;;;;52.57;30.47;;;;;;;;;;5015858;28;20248;-88
2021/01/20 02:01:22;;;;;;;56.93;27.70;;;;;;;;;;5015871;28;20650;-88
2021/01/20 02:03:49;;;;;;;47.17;28.20;;;;;;;;;;5015411;28;20169;-88
2021/01/20 02:06:14;;;;;;;54.03;29.47;;;;;;;;;;5014385;28;20169;-88
2021/01/20 02:08:40;;;;;;;56.93;30.87;;;;;;;;;;5015762;28;20259;-89
2021/01/20 02:11:24;;;;;;;52.00;28.30;;;;;;;;;;5015238;28;20220;-88
2021/01/20 02:13:56;;;;;;;55.27;30.93;;;;;;;;;;5015432;28;20177;-88
2021/01/20 02:16:22;;;;;;;55.00;27.93;;;;;;;;;;5015431;28;20256;-88
2021/01/20 02:18:52;;;;;;;50.23;28.93;;;;;;;;;;5015134;28;20256;-88
2021/01/20 02:21:33;;;;;;;49.47;28.33;;;;;;;;;;5014014;28;20177;-89
2021/01/20 02:23:59;;;;;;;53.83;28.23;;;;;;;;;;5013992;28;20177;-88
2021/01/20 02:26:43;;;;;;;48.43;27.27;;;;;;;;;;5015377;28;20248;-88
2021/01/20 02:29:23;;;;;;;48.73;27.67;;;;;;;;;;5015299;28;20204;-88
2021/01/20 02:31:49;;;;;;;52.77;28.73;;;;;;;;;;5015688;28;20157;-88
2021/01/20 02:34:17;;;;;;;47.27;26.33;;;;;;;;;;5013798;28;20177;-89
2021/01/20 02:36:43;;;;;;;45.63;25.87;;;;;;;;;;5015056;28;20173;-89
2021/01/20 02:39:08;;;;;;;47.20;27.60;;;;;;;;;;5013688;28;20184;-89
2021/01/20 02:41:34;;;;;;;48.37;27.17;;;;;;;;;;5015079;28;20170;-89
2021/01/20 02:44:00;;;;;;;44.87;25.67;;;;;;;;;;5015223;28;20180;-89
2021/01/20 02:46:25;;;;;;;44.00;26.23;;;;;;;;;;5014927;28;20173;-89
2021/01/20 02:48:51;;;;;;;45.37;27.10;;;;;;;;;;5015294;28;20209;-89
2021/01/20 02:51:21;;;;;;;47.87;26.57;;;;;;;;;;5014795;28;20615;-89
2021/01/20 02:53:48;;;;;;;42.23;24.13;;;;;;;;;;5013551;28;20181;-89
2021/01/20 02:56:16;;;;;;;45.10;26.13;;;;;;;;;;5014999;28;20180;-89
2021/01/20 02:58:44;;;;;;;46.33;26.13;;;;;;;;;;5013229;28;20236;-89
2021/01/20 03:01:09;;;;;;;46.07;25.67;;;;;;;;;;5014914;28;20193;-90
2021/01/20 03:03:36;;;;;;;46.97;26.57;;;;;;;;;;5013677;28;20631;-89
2021/01/20 03:06:01;;;;;;;42.33;25.27;;;;;;;;;;5015434;28;20196;-89
2021/01/20 03:08:27;;;;;;;42.07;24.83;;;;;;;;;;5014462;28;20197;-88
2021/01/20 03:10:52;;;;;;;45.23;26.00;;;;;;;;;;5014468;28;20213;-90
2021/01/20 03:13:18;;;;;;;47.20;25.97;;;;;;;;;;5014405;28;20177;-90
2021/01/20 03:15:44;;;;;;;47.77;27.70;;;;;;;;;;5013169;28;20180;-89
2021/01/20 03:18:09;;;;;;;51.07;27.07;;;;;;;;;;5014431;28;20173;-89
2021/01/20 03:20:35;;;;;;;44.17;25.47;;;;;;;;;;5014432;28;20505;-89
2021/01/20 03:23:00;;;;;;;43.33;25.63;;;;;;;;;;5014075;28;20177;-89
2021/01/20 03:25:26;;;;;;;47.93;26.13;;;;;;;;;;5014026;28;20235;-88
2021/01/20 03:27:52;;;;;;;44.27;25.47;;;;;;;;;;5014240;28;20173;-88
2021/01/20 03:30:18;;;;;;;45.73;25.50;;;;;;;;;;5013040;28;20228;-88
2021/01/20 03:32:43;;;;;;;47.93;26.10;;;;;;;;;;5014512;28;20177;-90
2021/01/20 03:35:09;;;;;;;46.77;24.80;;;;;;;;;;5013324;28;20188;-90
2021/01/20 03:37:35;;;;;;;43.90;25.50;;;;;;;;;;5014227;28;20196;-90
2021/01/20 03:40:00;;;;;;;45.77;25.70;;;;;;;;;;5014702;28;20173;-90
2021/01/20 03:42:25;;;;;;;42.97;23.73;;;;;;;;;;5014154;28;20180;-90
2021/01/20 03:44:51;;;;;;;40.37;24.63;;;;;;;;;;5014653;28;20207;-90
2021/01/20 03:47:16;;;;;;;47.93;25.37;;;;;;;;;;5012904;28;20181;-90
2021/01/20 03:49:41;;;;;;;42.73;24.67;;;;;;;;;;5014261;28;20197;-90
2021/01/20 03:52:06;;;;;;;46.43;26.27;;;;;;;;;;5013585;28;20501;-90
2021/01/20 03:54:32;;;;;;;43.53;25.57;;;;;;;;;;5013805;28;20173;-90
2021/01/20 03:56:57;;;;;;;47.87;26.63;;;;;;;;;;5014265;28;20181;-90
2021/01/20 03:59:22;;;;;;;42.43;24.40;;;;;;;;;;5014519;28;20244;-90
2021/01/20 04:01:48;;;;;;;43.37;25.57;;;;;;;;;;5014181;28;20169;-90
2021/01/20 04:04:13;;;;;;;47.20;25.87;;;;;;;;;;5013640;28;20624;-90
2021/01/20 04:06:38;;;;;;;45.63;25.80;;;;;;;;;;5012324;28;20173;-90
2021/01/20 04:09:05;;;;;;;52.63;27.37;;;;;;;;;;5013836;28;20216;-89
2021/01/20 04:11:31;;;;;;;52.60;27.23;;;;;;;;;;5014157;28;20180;-89
2021/01/20 04:13:56;;;;;;;48.20;27.17;;;;;;;;;;5014229;28;20607;-89
2021/01/20 04:16:21;;;;;;;49.17;27.63;;;;;;;;;;5013716;28;20177;-90
2021/01/20 04:18:47;;;;;;;43.70;26.10;;;;;;;;;;5013787;28;20177;-90
2021/01/20 04:21:12;;;;;;;43.37;26.63;;;;;;;;;;5014102;28;20170;-90
2021/01/20 04:23:38;;;;;;;50.53;26.73;;;;;;;;;;5013745;28;20269;-90
2021/01/20 04:26:04;;;;;;;41.00;24.57;;;;;;;;;;5012479;28;20507;-90
2021/01/20 04:28:30;;;;;;;42.50;24.30;;;;;;;;;;5013603;28;20237;-89
2021/01/20 04:30:55;;;;;;;43.30;25.43;;;;;;;;;;5013526;28;20655;-90
2021/01/20 04:33:20;;;;;;;42.67;25.10;;;;;;;;;;5014026;28;20655;-90
2021/01/20 04:35:46;;;;;;;43.80;25.77;;;;;;;;;;5013702;28;20609;-90
2021/01/20 04:38:11;;;;;;;46.60;26.53;;;;;;;;;;5013907;28;20511;-90
2021/01/20 04:40:36;;;;;;;46.17;28.37;;;;;;;;;;5014257;28;20177;-90
2021/01/20 04:43:02;;;;;;;46.50;27.17;;;;;;;;;;5017243;28;20184;-89
2021/01/20 04:45:27;;;;;;;41.00;25.17;;;;;;;;;;5017454;28;20212;-89
2021/01/20 04:47:53;;;;;;;44.97;25.90;;;;;;;;;;5016875;28;20640;-89
2021/01/20 04:50:19;;;;;;;44.43;26.80;;;;;;;;;;5016770;28;20585;-88
2021/01/20 04:52:45;;;;;;;51.33;28.70;;;;;;;;;;5017326;28;20227;-89
2021/01/20 04:55:12;;;;;;;47.97;26.17;;;;;;;;;;5017171;28;20173;-89
2021/01/20 04:57:37;;;;;;;53.57;29.07;;;;;;;;;;5016657;28;20185;-88
2021/01/20 05:00:03;;;;;;;51.20;30.13;;;;;;;;;;5017094;28;20333;-89
2021/01/20 05:02:29;;;;;;;53.73;31.73;;;;;;;;;;5015389;28;20531;-89
2021/01/20 05:04:54;;;;;;;52.63;31.47;;;;;;;;;;5016857;28;20257;-89
2021/01/20 05:07:20;;;;;;;56.07;33.20;;;;;;;;;;5016780;28;20496;-90
2021/01/20 05:09:45;;;;;;;52.23;32.20;;;;;;;;;;5016629;28;20252;-88
2021/01/20 05:12:30;;;;;;;54.33;30.37;;;;;;;;;;5016882;28;20521;-89
2021/01/20 05:14:56;;;;;;;52.63;32.13;;;;;;;;;;5016745;28;20260;-89
2021/01/20 05:17:21;;;;;;;54.63;31.97;;;;;;;;;;5014998;28;20320;-89
2021/01/20 05:19:46;;;;;;;56.20;32.67;;;;;;;;;;5015219;28;20178;-89
2021/01/20 05:22:12;;;;;;;52.27;30.43;;;;;;;;;;5016708;28;20562;-89
2021/01/20 05:24:37;;;;;;;52.03;30.90;;;;;;;;;;5016458;28;20166;-89
2021/01/20 05:27:04;;;;;;;60.70;32.47;;;;;;;;;;5015204;28;20185;-89
2021/01/20 05:29:29;;;;;;;61.50;34.10;;;;;;;;;;5014596;28;20209;-89
2021/01/20 05:31:54;;;;;;;63.97;32.73;;;;;;;;;;5016470;28;20191;-89
2021/01/20 05:34:23;;;;;;;62.00;32.33;;;;;;;;;;5016251;28;20628;-89
2021/01/20 05:37:01;;;;;;;65.00;35.53;;;;;;;;;;5016415;28;20256;-89
2021/01/20 05:39:27;;;;;;;64.30;35.00;;;;;;;;;;5014829;28;20188;-89
2021/01/20 05:41:59;;;;;;;65.37;36.33;;;;;;;;;;5016070;28;20177;-89
2021/01/20 05:44:24;;;;;;;86.03;45.13;;;;;;;;;;5016257;28;20165;-88
2021/01/20 05:46:49;;;;;;;100.47;45.97;;;;;;;;;;5016079;28;20170;-89
2021/01/20 05:49:25;;;;;;;114.90;52.63;;;;;;;;;;5016142;28;20211;-89
2021/01/20 05:51:51;;;;;;;98.03;50.00;;;;;;;;;;5014242;28;20164;-89
2021/01/20 05:54:28;;;;;;;97.23;47.43;;;;;;;;;;5015714;28;20243;-89
2021/01/20 05:56:53;;;;;;;68.10;38.17;;;;;;;;;;5015915;28;20172;-89
2021/01/20 05:59:24;;;;;;;64.10;34.00;;;;;;;;;;5014444;28;20237;-89
2021/01/20 06:01:49;;;;;;;56.37;32.43;;;;;;;;;;5015991;28;20157;-89
2021/01/20 06:04:14;;;;;;;58.27;33.77;;;;;;;;;;5014616;28;20181;-90
2021/01/20 06:06:40;;;;;;;50.97;31.50;;;;;;;;;;5015587;28;20173;-90
2021/01/20 06:09:07;;;;;;;56.87;33.43;;;;;;;;;;5015229;28;20567;-89
2021/01/20 06:11:32;;;;;;;73.77;41.03;;;;;;;;;;5015700;28;20173;-90
2021/01/20 06:14:00;;;;;;;67.67;38.27;;;;;;;;;;5015183;28;20256;-90
2021/01/20 06:16:29;;;;;;;75.27;41.40;;;;;;;;;;5014130;28;20211;-90
2021/01/20 06:19:00;;;;;;;61.43;35.87;;;;;;;;;;5014905;28;20556;-90
2021/01/20 06:21:27;;;;;;;59.07;34.73;;;;;;;;;;5015056;28;20168;-90
2021/01/20 06:24:13;;;;;;;53.30;34.13;;;;;;;;;;5015561;28;20170;-90
2021/01/20 06:26:45;;;;;;;63.87;36.80;;;;;;;;;;5013997;28;20548;-90
2021/01/20 06:29:11;;;;;;;59.87;35.63;;;;;;;;;;5014389;28;20259;-88
2021/01/20 06:31:38;;;;;;;63.40;37.47;;;;;;;;;;5014901;28;20177;-88
2021/01/20 06:34:04;;;;;;;67.13;37.17;;;;;;;;;;5015094;28;20264;-88
2021/01/20 06:36:33;;;;;;;65.77;39.43;;;;;;;;;;5015031;28;20256;-88
2021/01/20 06:38:59;;;;;;;72.30;37.70;;;;;;;;;;5014982;28;20200;-88
2021/01/20 06:41:40;;;;;;;58.00;35.90;;;;;;;;;;5014951;28;20620;-88
2021/01/20 06:44:10;;;;;;;55.63;32.70;;;;;;;;;;5014953;28;20224;-90
2021/01/20 06:46:36;;;;;;;56.17;33.73;;;;;;;;;;5013394;28;20181;-90
2021/01/20 06:49:01;;;;;;;66.77;37.67;;;;;;;;;;5014783;28;20656;-90
2021/01/20 06:51:27;;;;;;;69.03;38.47;;;;;;;;;;5013736;28;20188;-89
2021/01/20 06:53:58;;;;;;;68.17;39.07;;;;;;;;;;5014779;28;20497;-87
2021/01/20 06:56:30;;;;;;;69.07;39.33;;;;;;;;;;5015035;28;20169;-86
2021/01/20 06:59:15;;;;;;;61.77;35.33;;;;;;;;;;5014892;28;20233;-88
2021/01/20 07:01:40;;;;;;;63.17;37.23;;;;;;;;;;5014999;28;20204;-88
2021/01/20 07:04:06;;;;;;;71.63;42.13;;;;;;;;;;5014585;28;20169;-88
2021/01/20 07:06:34;;;;;;;67.87;40.43;;;;;;;;;;5013331;28;20530;-88
2021/01/20 07:09:11;;;;;;;66.50;40.00;;;;;;;;;;5014650;28;20207;-88
2021/01/20 07:11:55;;;;;;;61.50;36.33;;;;;;;;;;5014567;28;20303;-86
2021/01/20 07:14:29;;;;;;;64.63;37.53;;;;;;;;;;5014408;28;20592;-88
2021/01/20 07:16:55;;;;;;;58.73;36.60;;;;;;;;;;5015303;28;20252;-88
2021/01/20 07:19:21;;;;;;;58.37;34.53;;;;;;;;;;5013027;28;20213;-88
2021/01/20 07:21:46;;;;;;;55.87;34.33;;;;;;;;;;5014721;28;20188;-88
2021/01/20 07:24:12;;;;;;;53.27;33.33;;;;;;;;;;5012464;28;20184;-88
2021/01/20 07:26:39;;;;;;;61.67;35.37;;;;;;;;;;5014255;28;20564;-88
2021/01/20 07:29:24;;;;;;;61.07;35.50;;;;;;;;;;5012562;28;20247;-88
2021/01/20 07:31:50;;;;;;;68.93;43.47;;;;;;;;;;5013373;28;20188;-86
2021/01/20 07:34:16;;;;;;;79.90;46.73;;;;;;;;;;5012795;28;20180;-88
2021/01/20 07:36:42;;;;;;;68.37;40.20;;;;;;;;;;5014776;28;20276;-90
2021/01/20 07:39:23;;;;;;;67.80;43.03;;;;;;;;;;5013061;28;20644;-90
2021/01/20 07:41:52;;;;;;;70.77;41.97;;;;;;;;;;5014183;28;20255;-90
2021/01/20 07:44:18;;;;;;;74.57;42.90;;;;;;;;;;5014463;28;20176;-90
2021/01/20 07:46:43;;;;;;;69.23;39.30;;;;;;;;;;5004716;28;20181;-88
2021/01/20 07:49:13;;;;;;;74.70;44.27;;;;;;;;;;5003942;28;20204;-89
2021/01/20 07:51:38;;;;;;;90.90;49.10;;;;;;;;;;5003130;28;20239;-89
2021/01/20 07:54:04;;;;;;;81.17;46.60;;;;;;;;;;5006952;28;20625;-89
2021/01/20 07:56:30;;;;;;;81.23;47.50;;;;;;;;;;5001466;28;20197;-89
2021/01/20 07:58:56;;;;;;;104.90;57.80;;;;;;;;;;5004299;28;20225;-88
2021/01/20 08:01:25;;;;;;;109.43;59.63;;;;;;;;;;5014008;28;20652;-87
2021/01/20 08:03:51;;;;;;;113.33;63.03;;;;;;;;;;5011372;28;20185;-88
2021/01/20 08:06:17;;;;;;;103.80;57.13;;;;;;;;;;5017300;28;20275;-89
2021/01/20 08:08:52;;;;;;;90.47;50.27;;;;;;;;;;5024879;28;20193;-89
2021/01/20 08:11:18;;;;;;;113.97;60.47;;;;;;;;;;5011132;28;20200;-89
2021/01/20 08:13:44;;;;;;;103.20;58.47;;;;;;;;;;5018896;28;20631;-89
2021/01/20 08:16:09;;;;;;;101.40;57.67;;;;;;;;;;5032086;28;20185;-89
2021/01/20 08:18:35;;;;;;;139.77;73.83;;;;;;;;;;5036858;28;20206;-87
2021/01/20 08:21:00;;;;;;;134.13;74.17;;;;;;;;;;5036502;28;20511;-86
2021/01/20 08:23:31;;;;;;;136.13;74.33;;;;;;;;;;5037266;28;20203;-86
2021/01/20 08:26:06;;;;;;;116.53;62.20;;;;;;;;;;5037610;28;20253;-88
2021/01/20 08:28:33;;;;;;;95.83;52.83;;;;;;;;;;5035326;28;20176;-87
2021/01/20 08:30:58;;;;;;;106.33;60.07;;;;;;;;;;5037110;28;20168;-88
2021/01/20 08:33:23;;;;;;;100.10;59.03;;;;;;;;;;5035527;28;20263;-88
2021/01/20 08:35:58;;;;;;;69.37;41.63;;;;;;;;;;5035394;28;20511;-88
2021/01/20 08:38:28;;;;;;;64.80;40.60;;;;;;;;;;5036873;28;20661;-87
2021/01/20 08:41:12;;;;;;;66.73;40.67;;;;;;;;;;5036778;28;20177;-87
2021/01/20 08:43:39;;;;;;;57.47;37.73;;;;;;;;;;5036918;28;20256;-86
2021/01/20 08:46:23;;;;;;;62.67;38.77;;;;;;;;;;5036147;28;20188;-85
2021/01/20 08:48:58;;;;;;;54.33;34.97;;;;;;;;;;5037270;28;20200;-87
2021/01/20 08:51:23;;;;;;;67.63;42.40;;;;;;;;;;5036496;28;20526;-87
2021/01/20 08:53:49;;;;;;;67.57;40.00;;;;;;;;;;5036629;28;20188;-87
2021/01/20 08:56:27;;;;;;;68.93;45.43;;;;;;;;;;5036393;28;20181;-88
2021/01/20 08:58:53;;;;;;;73.20;46.70;;;;;;;;;;5036062;28;20286;-87
2021/01/20 09:01:27;;;;;;;65.13;41.37;;;;;;;;;;5036031;28;20200;-87
2021/01/20 09:04:01;;;;;;;56.67;37.77;;;;;;;;;;5035020;28;20689;-88
2021/01/20 09:06:29;;;;;;;65.73;40.17;;;;;;;;;;5007427;28;20212;-88
2021/01/20 09:08:55;;;;;;;57.50;36.63;;;;;;;;;;5014596;28;20212;-89
2021/01/20 09:11:24;;;;;;;47.17;32.37;;;;;;;;;;5015857;28;20260;-88
2021/01/20 09:13:50;;;;;;;52.20;33.10;;;;;;;;;;5015286;28;20280;-89
2021/01/20 09:16:16;;;;;;;56.30;35.33;;;;;;;;;;5015380;28;20177;-88
2021/01/20 09:18:43;;;;;;;53.23;34.23;;;;;;;;;;5016316;28;20177;-88
2021/01/20 09:21:09;;;;;;;57.40;35.67;;;;;;;;;;5016097;28;20642;-89
2021/01/20 09:23:37;;;;;;;53.77;34.03;;;;;;;;;;5016323;28;20620;-89
2021/01/20 09:26:03;;;;;;;56.13;34.10;;;;;;;;;;5016027;28;20174;-90
2021/01/20 09:28:29;;;;;;;61.80;37.53;;;;;;;;;;5013096;28;20600;-90
2021/01/20 09:30:54;;;;;;;61.37;37.70;;;;;;;;;;5015377;28;20655;-89
2021/01/20 09:33:20;;;;;;;54.60;33.77;;;;;;;;;;5016054;28;20196;-89
2021/01/20 09:35:46;;;;;;;61.33;35.80;;;;;;;;;;5014510;28;20229;-88
2021/01/20 09:38:11;;;;;;;61.80;38.33;;;;;;;;;;5016534;28;20180;-89
2021/01/20 09:40:38;;;;;;;61.73;37.53;;;;;;;;;;5014689;28;20177;-89
2021/01/20 09:43:13;;;;;;;60.30;36.33;;;;;;;;;;4998617;28;20181;-89
2021/01/20 09:45:49;;;;;;;63.77;40.23;;;;;;;;;;5016256;28;20256;-90
2021/01/20 09:48:16;;;;;;;60.57;37.33;;;;;;;;;;5014561;28;20181;-89
2021/01/20 09:50:44;;;;;;;60.63;36.77;;;;;;;;;;5014497;28;20213;-89
2021/01/20 09:53:12;;;;;;;58.17;36.13;;;;;;;;;;5015463;28;20207;-88
2021/01/20 09:55:37;;;;;;;51.40;34.23;;;;;;;;;;5015741;28;20255;-89
2021/01/20 09:58:03;;;;;;;50.00;35.90;;;;;;;;;;5014083;28;20264;-89
2021/01/20 10:00:29;;;;;;;50.90;33.27;;;;;;;;;;5014043;28;20224;-91
2021/01/20 10:02:54;;;;;;;52.90;34.20;;;;;;;;;;5013903;28;20182;-90
2021/01/20 10:05:20;;;;;;;53.67;33.40;;;;;;;;;;5014376;28;20173;-92
2021/01/20 10:07:45;;;;;;;50.53;32.97;;;;;;;;;;5014306;28;20264;-91
2021/01/20 10:10:11;;;;;;;48.03;31.07;;;;;;;;;;5014098;28;20605;-86
2021/01/20 10:12:37;;;;;;;42.13;29.40;;;;;;;;;;5014168;28;20181;-91
2021/01/20 10:15:03;;;;;;;47.10;32.07;;;;;;;;;;5014163;28;20184;-92
2021/01/20 10:17:29;;;;;;;43.40;30.57;;;;;;;;;;5013385;28;20311;-92
2021/01/20 10:19:54;;;;;;;53.93;34.97;;;;;;;;;;5013866;28;20209;-91
2021/01/20 10:22:22;;;;;;;65.20;38.80;;;;;;;;;;5013999;28;20272;-92
2021/01/20 10:24:49;;;;;;;62.00;39.43;;;;;;;;;;5009689;28;20186;-93
2021/01/20 10:27:14;;;;;;;62.30;38.17;;;;;;;;;;4998907;28;20667;-90
2021/01/20 10:29:40;;;;;;;57.37;35.40;;;;;;;;;;4993051;28;20213;-91
2021/01/20 10:32:05;;;;;;;56.20;34.77;;;;;;;;;;4994404;28;20268;-90
2021/01/20 10:34:40;;;;;;;52.50;35.50;;;;;;;;;;4998347;28;20187;-91
2021/01/20 10:37:06;;;;;;;50.77;33.60;;;;;;;;;;5013303;28;20160;-91
2021/01/20 10:39:32;;;;;;;57.53;37.80;;;;;;;;;;5011728;28;20177;-91
2021/01/20 10:41:57;;;;;;;61.37;39.37;;;;;;;;;;5013263;28;20188;-92
2021/01/20 10:44:23;;;;;;;62.63;40.77;;;;;;;;;;4998198;28;20181;-90
2021/01/20 10:46:49;;;;;;;66.50;42.37;;;;;;;;;;4995056;28;20199;-91
2021/01/20 10:49:14;;;;;;;62.40;40.40;;;;;;;;;;5012501;28;20239;-88
2021/01/20 10:51:41;;;;;;;64.03;38.33;;;;;;;;;;5009917;28;20208;-90
2021/01/20 10:54:06;;;;;;;56.23;36.97;;;;;;;;;;5022369;28;20191;-90
2021/01/20 10:56:31;;;;;;;56.50;37.43;;;;;;;;;;5033425;28;20543;-90
2021/01/20 10:58:57;;;;;;;61.87;39.13;;;;;;;;;;5030234;28;20679;-90
2021/01/20 11:01:23;;;;;;;61.43;38.53;;;;;;;;;;5017610;28;20292;-89
2021/01/20 11:03:48;;;;;;;66.60;39.57;;;;;;;;;;5011006;28;20268;-89
2021/01/20 11:06:15;;;;;;;56.87;37.70;;;;;;;;;;5012064;28;20449;-89
2021/01/20 11:08:40;;;;;;;51.13;33.40;;;;;;;;;;5013629;28;20212;-89
2021/01/20 11:11:06;;;;;;;54.07;34.50;;;;;;;;;;5013242;28;20203;-90
2021/01/20 11:13:33;;;;;;;52.47;34.60;;;;;;;;;;5012045;28;20173;-89
2021/01/20 11:15:58;;;;;;;46.10;33.13;;;;;;;;;;5013516;28;20176;-89
2021/01/20 11:18:25;;;;;;;47.73;31.10;;;;;;;;;;5012083;28;20551;-89
2021/01/20 11:20:50;;;;;;;42.80;29.50;;;;;;;;;;5013362;28;20191;-88
2021/01/20 11:23:17;;;;;;;44.47;29.83;;;;;;;;;;5011966;28;20678;-89
2021/01/20 11:25:52;;;;;;;45.90;30.57;;;;;;;;;;5013100;28;20252;-89
2021/01/20 11:28:18;;;;;;;48.87;31.27;;;;;;;;;;5013420;28;20231;-89
2021/01/20 11:30:44;;;;;;;47.93;33.20;;;;;;;;;;5013229;28;20212;-89
2021/01/20 11:33:09;;;;;;;64.63;41.27;;;;;;;;;;5012647;28;20247;-89
2021/01/20 11:35:39;;;;;;;82.60;52.57;;;;;;;;;;5008864;28;20193;-88
2021/01/20 11:38:05;;;;;;;69.90;45.30;;;;;;;;;;5011897;28;20185;-89
2021/01/20 11:40:31;;;;;;;63.67;43.57;;;;;;;;;;5012563;28;20181;-89
2021/01/20 11:42:57;;;;;;;69.80;46.97;;;;;;;;;;5027148;28;20180;-89
2021/01/20 11:45:31;;;;;;;59.90;41.10;;;;;;;;;;5031211;28;20195;-90
2021/01/20 11:47:56;;;;;;;61.17;42.90;;;;;;;;;;5031298;28;20535;-88
2021/01/20 11:50:22;;;;;;;59.00;40.10;;;;;;;;;;5025216;28;20211;-89
2021/01/20 11:52:48;;;;;;;56.33;37.43;;;;;;;;;;5035004;28;20226;-89
2021/01/20 11:55:14;;;;;;;62.33;42.93;;;;;;;;;;5035601;28;20188;-89
2021/01/20 11:57:39;;;;;;;51.53;37.13;;;;;;;;;;5035429;28;20721;-89
2021/01/20 12:00:06;;;;;;;55.27;38.60;;;;;;;;;;5036848;28;20199;-89
2021/01/20 12:02:32;;;;;;;51.73;35.90;;;;;;;;;;5036064;28;20180;-89
2021/01/20 12:04:57;;;;;;;54.33;37.47;;;;;;;;;;5035761;28;20191;-89
2021/01/20 12:07:23;;;;;;;59.93;41.17;;;;;;;;;;5034773;28;20176;-88
2021/01/20 12:09:48;;;;;;;60.07;40.90;;;;;;;;;;5035021;28;20563;-89
2021/01/20 12:12:13;;;;;;;59.90;41.47;;;;;;;;;;5035243;28;20536;-89
2021/01/20 12:14:39;;;;;;;67.67;43.73;;;;;;;;;;5034034;28;20184;-88
2021/01/20 12:17:05;;;;;;;64.93;40.87;;;;;;;;;;5035459;28;20176;-88
2021/01/20 12:19:31;;;;;;;53.20;36.07;;;;;;;;;;5036351;28;20180;-88
2021/01/20 12:21:57;;;;;;;50.23;34.90;;;;;;;;;;5036365;28;20649;-87
2021/01/20 12:24:22;;;;;;;55.47;35.67;;;;;;;;;;5035697;28;20239;-89
2021/01/20 12:26:48;;;;;;;58.60;36.77;;;;;;;;;;5034997;28;20185;-89
2021/01/20 12:29:13;;;;;;;52.37;34.70;;;;;;;;;;5035965;28;20204;-89
2021/01/20 12:31:40;;;;;;;51.27;35.30;;;;;;;;;;5036037;28;20256;-88
2021/01/20 12:34:05;;;;;;;56.23;37.20;;;;;;;;;;5016043;28;20283;-89
2021/01/20 12:36:30;;;;;;;51.67;35.13;;;;;;;;;;5016052;28;20205;-87
2021/01/20 12:38:57;;;;;;;46.67;31.73;;;;;;;;;;5012749;28;20193;-88
2021/01/20 12:41:22;;;;;;;46.47;32.07;;;;;;;;;;5014071;28;20181;-89
2021/01/20 12:43:47;;;;;;;44.90;31.10;;;;;;;;;;5014649;28;20188;-89
2021/01/20 12:46:13;;;;;;;53.50;34.87;;;;;;;;;;5014836;28;20176;-88
2021/01/20 12:48:38;;;;;;;55.83;36.10;;;;;;;;;;5014560;28;20181;-88
2021/01/20 12:51:04;;;;;;;53.73;35.63;;;;;;;;;;5014809;28;20173;-87
2021/01/20 12:53:29;;;;;;;52.17;35.30;;;;;;;;;;5014658;28;20185;-89
2021/01/20 12:55:54;;;;;;;50.07;32.87;;;;;;;;;;5013127;28;21153;-88
2021/01/20 12:58:20;;;;;;;46.93;34.17;;;;;;;;;;4998830;28;20237;-89
2021/01/20 13:00:47;;;;;;;50.53;31.80;;;;;;;;;;5013789;28;20302;-89
2021/01/20 13:03:12;;;;;;;44.67;31.93;;;;;;;;;;5014229;28;20173;-88
2021/01/20 13:05:39;;;;;;;44.80;29.13;;;;;;;;;;5013864;28;20516;-88
2021/01/20 13:08:04;;;;;;;45.23;31.40;;;;;;;;;;5014115;28;20189;-88
2021/01/20 13:10:30;;;;;;;43.60;31.90;;;;;;;;;;5015408;28;20288;-88
2021/01/20 13:12:55;;;;;;;45.27;30.30;;;;;;;;;;5015139;28;20579;-89
2021/01/20 13:15:23;;;;;;;45.53;33.57;;;;;;;;;;5015074;28;20185;-89
2021/01/20 13:17:48;;;;;;;51.67;34.70;;;;;;;;;;5013754;28;20182;-89
2021/01/20 13:20:16;;;;;;;50.17;35.60;;;;;;;;;;5015347;28;20184;-89
2021/01/20 13:22:41;;;;;;;59.10;41.80;;;;;;;;;;5015515;28;20204;-89
2021/01/20 13:25:06;;;;;;;65.83;47.03;;;;;;;;;;5014289;28;20614;-89
2021/01/20 13:27:34;;;;;;;78.37;49.90;;;;;;;;;;5014383;28;20650;-88
2021/01/20 13:29:59;;;;;;;67.70;46.60;;;;;;;;;;5013895;28;20659;-89
2021/01/20 13:32:24;;;;;;;82.27;51.90;;;;;;;;;;5014976;28;20181;-89
2021/01/20 13:34:50;;;;;;;79.40;52.07;;;;;;;;;;5005472;28;20178;-90
2021/01/20 13:37:15;;;;;;;92.23;56.20;;;;;;;;;;4995127;28;20272;-88
2021/01/20 13:39:42;;;;;;;89.03;54.83;;;;;;;;;;4993872;28;20312;-89
2021/01/20 13:42:07;;;;;;;86.87;55.10;;;;;;;;;;4994100;28;20629;-89
2021/01/20 13:44:36;;;;;;;80.27;52.80;;;;;;;;;;4994742;28;20193;-89
2021/01/20 13:47:01;;;;;;;80.77;50.03;;;;;;;;;;4994044;28;20618;-88
2021/01/20 13:49:28;;;;;;;80.50;49.93;;;;;;;;;;4995012;28;20201;-89
2021/01/20 13:51:53;;;;;;;72.30;46.73;;;;;;;;;;4993930;28;20212;-88
2021/01/20 13:54:19;;;;;;;87.27;54.93;;;;;;;;;;4994882;28;20276;-91
2021/01/20 13:56:45;;;;;;;84.83;53.67;;;;;;;;;;4993955;28;20181;-90
2021/01/20 13:59:11;;;;;;;85.57;52.20;;;;;;;;;;4993848;28;20237;-91
2021/01/20 14:01:41;;;;;;;80.63;50.70;;;;;;;;;;4993651;28;20198;-91
2021/01/20 14:04:06;;;;;;;81.07;52.33;;;;;;;;;;4994908;28;20177;-91
2021/01/20 14:06:37;;;;;;;78.47;49.80;;;;;;;;;;4994666;28;20200;-89
2021/01/20 14:09:05;;;;;;;80.10;49.90;;;;;;;;;;4995137;28;20656;-87
2021/01/20 14:11:31;;;;;;;82.37;51.80;;;;;;;;;;4995183;28;20273;-88
2021/01/20 14:13:57;;;;;;;84.07;52.40;;;;;;;;;;5005824;28;20188;-89